sensor_id;sensor_type;location;lat;lon;timestamp;pressure;altitude;pressure_sealevel;temperature;humidity
21664;BME280;10993;52.510;13.456;2024-01-16T00:00:38;56791.63;;;-146.93;71.95
21664;BME280;10993;52.510;13.456;2024-01-16T00:05:38;56896.91;;;-146.93;73.87
21664;BME280;10993;52.510;13.456;2024-01-16T00:10:39;56894.88;;;-146.93;74.08
21664;BME280;10993;52.510;13.456;2024-01-16T00:15:40;56836.16;;;-146.93;75.15
21664;BME280;10993;52.510;13.456;2024-01-16T00:20:41;57083.19;;;-146.93;74.28
21664;BME280;10993;52.510;13.456;2024-01-16T00:25:42;56840.22;;;-146.93;76.10
21664;BME280;10993;52.510;13.456;2024-01-16T00:30:44;57095.34;;;-146.93;78.09
21664;BME280;10993;52.510;13.456;2024-01-16T00:35:44;56975.88;;;-146.93;79.28
21664;BME280;10993;52.510;13.456;2024-01-16T00:40:44;57016.38;;;-146.93;80.16
21664;BME280;10993;52.510;13.456;2024-01-16T00:45:47;57020.44;;;-146.93;81.04
21664;BME280;10993;52.510;13.456;2024-01-16T00:50:48;57030.56;;;-146.93;83.22
21664;BME280;10993;52.510;13.456;2024-01-16T00:55:49;57180.41;;;-146.93;86.01
21664;BME280;10993;52.510;13.456;2024-01-16T01:00:51;57281.66;;;-146.93;87.77
21664;BME280;10993;52.510;13.456;2024-01-16T01:05:52;57407.22;;;-146.93;90.08
21664;BME280;10993;52.510;13.456;2024-01-16T01:10:52;57577.34;;;-146.93;91.30
21664;BME280;10993;52.510;13.456;2024-01-16T01:15:54;57662.41;;;-146.93;92.99
21664;BME280;10993;52.510;13.456;2024-01-16T01:20:54;57690.75;;;-146.93;93.12
21664;BME280;10993;52.510;13.456;2024-01-16T01:25:54;57617.84;;;-146.93;92.60
21664;BME280;10993;52.510;13.456;2024-01-16T01:30:56;57690.75;;;-146.93;92.67
21664;BME280;10993;52.510;13.456;2024-01-16T01:35:56;57723.16;;;-146.93;92.95
21664;BME280;10993;52.510;13.456;2024-01-16T01:40:56;57601.66;;;-146.93;92.27
21664;BME280;10993;52.510;13.456;2024-01-16T01:46:09;57577.34;;;-146.93;91.78
21664;BME280;10993;52.510;13.456;2024-01-16T01:51:10;57563.16;;;-146.93;91.67
21664;BME280;10993;52.510;13.456;2024-01-16T01:56:14;57577.34;;;-146.93;91.64
21664;BME280;10993;52.510;13.456;2024-01-16T02:01:18;57522.66;;;-146.93;92.17
21664;BME280;10993;52.510;13.456;2024-01-16T02:06:19;57613.78;;;-146.93;92.27
21664;BME280;10993;52.510;13.456;2024-01-16T02:11:19;57642.16;;;-146.93;92.15
21664;BME280;10993;52.510;13.456;2024-01-16T02:16:22;57625.94;;;-146.93;92.19
21664;BME280;10993;52.510;13.456;2024-01-16T02:21:22;57569.25;;;-146.93;92.16
21664;BME280;10993;52.510;13.456;2024-01-16T02:26:27;57553.03;;;-146.93;91.78
21664;BME280;10993;52.510;13.456;2024-01-16T02:31:27;57591.50;;;-146.93;91.90
21664;BME280;10993;52.510;13.456;2024-01-16T02:36:28;57646.19;;;-146.93;92.14
21664;BME280;10993;52.510;13.456;2024-01-16T02:41:30;57589.50;;;-146.93;92.03
21664;BME280;10993;52.510;13.456;2024-01-16T02:46:30;57553.03;;;-146.93;91.95
21664;BME280;10993;52.510;13.456;2024-01-16T02:51:32;57587.47;;;-146.93;91.53
21664;BME280;10993;52.510;13.456;2024-01-16T02:56:34;57553.03;;;-146.93;92.02
21664;BME280;10993;52.510;13.456;2024-01-16T03:01:35;57583.41;;;-146.93;92.23
21664;BME280;10993;52.510;13.456;2024-01-16T03:06:35;57565.19;;;-146.93;92.28
21664;BME280;10993;52.510;13.456;2024-01-16T03:11:37;57617.84;;;-146.93;92.66
21664;BME280;10993;52.510;13.456;2024-01-16T03:16:37;57636.06;;;-146.93;93.25
21664;BME280;10993;52.510;13.456;2024-01-16T03:21:37;57662.41;;;-146.93;93.79
21664;BME280;10993;52.510;13.456;2024-01-16T03:26:40;57785.94;;;-146.93;94.48
21664;BME280;10993;52.510;13.456;2024-01-16T03:31:40;57785.94;;;-146.93;94.80
21664;BME280;10993;52.510;13.456;2024-01-16T03:36:41;57889.25;;;-146.93;94.60
21664;BME280;10993;52.510;13.456;2024-01-16T03:41:42;57787.97;;;-146.93;94.42
21664;BME280;10993;52.510;13.456;2024-01-16T03:46:43;57866.97;;;-146.93;94.64
21664;BME280;10993;52.510;13.456;2024-01-16T03:51:43;57804.19;;;-146.93;94.00
21664;BME280;10993;52.510;13.456;2024-01-16T03:56:47;57755.56;;;-146.93;93.51
21664;BME280;10993;52.510;13.456;2024-01-16T04:01:47;57692.78;;;-146.93;93.22
21664;BME280;10993;52.510;13.456;2024-01-16T04:06:48;57694.81;;;-146.93;92.86
21664;BME280;10993;52.510;13.456;2024-01-16T04:11:51;57520.63;;;-146.93;92.04
21664;BME280;10993;52.510;13.456;2024-01-16T04:16:51;57542.91;;;-146.93;91.08
21664;BME280;10993;52.510;13.456;2024-01-16T04:21:52;57447.72;;;-146.93;89.98
21664;BME280;10993;52.510;13.456;2024-01-16T04:26:54;57512.53;;;-146.93;90.46
21664;BME280;10993;52.510;13.456;2024-01-16T04:31:54;57451.78;;;-146.93;90.68
21664;BME280;10993;52.510;13.456;2024-01-16T04:36:54;57470.00;;;-146.93;90.40
21664;BME280;10993;52.510;13.456;2024-01-16T04:41:56;57524.69;;;-146.93;90.96
21664;BME280;10993;52.510;13.456;2024-01-16T04:46:56;57467.97;;;-146.93;90.68
21664;BME280;10993;52.510;13.456;2024-01-16T04:51:56;57478.09;;;-146.93;90.49
21664;BME280;10993;52.510;13.456;2024-01-16T04:56:58;57502.41;;;-146.93;90.74
21664;BME280;10993;52.510;13.456;2024-01-16T05:01:59;58675.22;;;-146.93;91.26
21664;BME280;10993;52.510;13.456;2024-01-16T05:06:59;57476.06;;;-146.93;90.78
21664;BME280;10993;52.510;13.456;2024-01-16T05:12:01;57532.78;;;-146.93;91.08
21664;BME280;10993;52.510;13.456;2024-01-16T05:17:01;57378.88;;;-146.93;91.06
21664;BME280;10993;52.510;13.456;2024-01-16T05:22:03;57516.59;;;-146.93;91.12
21664;BME280;10993;52.510;13.456;2024-01-16T05:27:04;57544.94;;;-146.93;91.36
21664;BME280;10993;52.510;13.456;2024-01-16T05:32:05;57504.44;;;-146.93;91.66
21664;BME280;10993;52.510;13.456;2024-01-16T05:37:05;57549.00;;;-146.93;91.49
21664;BME280;10993;52.510;13.456;2024-01-16T05:42:07;57490.25;;;-146.93;91.68
21664;BME280;10993;52.510;13.456;2024-01-16T05:47:07;57579.38;;;-146.93;92.08
21664;BME280;10993;52.510;13.456;2024-01-16T05:52:07;57621.91;;;-146.93;92.97
21664;BME280;10993;52.510;13.456;2024-01-16T05:57:09;57638.09;;;-146.93;92.83
21664;BME280;10993;52.510;13.456;2024-01-16T06:02:09;57715.06;;;-146.93;93.37
21664;BME280;10993;52.510;13.456;2024-01-16T06:07:11;57761.66;;;-146.93;93.89
21664;BME280;10993;52.510;13.456;2024-01-16T06:12:13;57765.69;;;-146.93;94.17
21664;BME280;10993;52.510;13.456;2024-01-16T06:17:13;57775.81;;;-146.93;93.99
21664;BME280;10993;52.510;13.456;2024-01-16T06:22:13;57783.94;;;-146.93;93.87
21664;BME280;10993;52.510;13.456;2024-01-16T06:27:15;57751.53;;;-146.93;93.94
21664;BME280;10993;52.510;13.456;2024-01-16T06:32:19;57709.00;;;-146.93;94.05
21664;BME280;10993;52.510;13.456;2024-01-16T06:37:19;57670.50;;;-146.93;93.78
21664;BME280;10993;52.510;13.456;2024-01-16T06:42:21;57702.91;;;-146.93;93.69
21664;BME280;10993;52.510;13.456;2024-01-16T06:47:21;57692.78;;;-146.93;93.92
21664;BME280;10993;52.510;13.456;2024-01-16T06:52:21;57741.38;;;-146.93;93.93
21664;BME280;10993;52.510;13.456;2024-01-16T06:57:23;57737.34;;;-146.93;94.17
21664;BME280;10993;52.510;13.456;2024-01-16T07:02:23;57753.53;;;-146.93;94.24
21664;BME280;10993;52.510;13.456;2024-01-16T07:07:24;57824.44;;;-146.93;94.13
21664;BME280;10993;52.510;13.456;2024-01-16T07:12:26;57733.28;;;-146.93;93.66
21664;BME280;10993;52.510;13.456;2024-01-16T07:17:26;57731.25;;;-146.93;93.54
21664;BME280;10993;52.510;13.456;2024-01-16T07:22:26;57617.84;;;-146.93;92.78
21664;BME280;10993;52.510;13.456;2024-01-16T07:27:28;57577.34;;;-146.93;92.13
21664;BME280;10993;52.510;13.456;2024-01-16T07:32:28;57524.69;;;-146.93;91.53
21664;BME280;10993;52.510;13.456;2024-01-16T07:37:29;57561.13;;;-146.93;91.54
21664;BME280;10993;52.510;13.456;2024-01-16T07:42:30;57463.94;;;-146.93;90.96
21664;BME280;10993;52.510;13.456;2024-01-16T07:47:34;57472.03;;;-146.93;90.24
21664;BME280;10993;52.510;13.456;2024-01-16T07:52:36;57459.88;;;-146.93;90.17
21664;BME280;10993;52.510;13.456;2024-01-16T07:57:37;57435.56;;;-146.93;89.48
21664;BME280;10993;52.510;13.456;2024-01-16T08:02:38;57358.63;;;-146.93;88.98
21664;BME280;10993;52.510;13.456;2024-01-16T08:07:39;57239.13;;;-146.93;87.20
21664;BME280;10993;52.510;13.456;2024-01-16T08:12:40;57285.72;;;-146.93;87.76
21664;BME280;10993;52.510;13.456;2024-01-16T08:17:40;57281.66;;;-146.93;87.44
21664;BME280;10993;52.510;13.456;2024-01-16T08:22:41;57241.16;;;-146.93;87.64
21664;BME280;10993;52.510;13.456;2024-01-16T08:27:43;57245.22;;;-146.93;86.33
21664;BME280;10993;52.510;13.456;2024-01-16T08:32:43;57170.28;;;-146.93;85.47
21664;BME280;10993;52.510;13.456;2024-01-16T08:37:44;57145.97;;;-146.93;85.12
21664;BME280;10993;52.510;13.456;2024-01-16T08:42:45;57198.63;;;-146.93;85.50
21664;BME280;10993;52.510;13.456;2024-01-16T08:47:46;57168.25;;;-146.93;84.66
21664;BME280;10993;52.510;13.456;2024-01-16T08:52:46;57071.06;;;-146.93;83.92
21664;BME280;10993;52.510;13.456;2024-01-16T08:57:48;57119.66;;;-146.93;83.33
21664;BME280;10993;52.510;13.456;2024-01-16T09:02:48;57006.25;;;-146.93;83.26
21664;BME280;10993;52.510;13.456;2024-01-16T09:07:49;57099.41;;;-146.93;82.80
21664;BME280;10993;52.510;13.456;2024-01-16T09:12:50;57060.94;;;-146.93;83.12
21664;BME280;10993;52.510;13.456;2024-01-16T09:17:51;57087.25;;;-146.93;83.91
21664;BME280;10993;52.510;13.456;2024-01-16T09:22:51;57101.44;;;-146.93;83.57
21664;BME280;10993;52.510;13.456;2024-01-16T09:27:53;57162.19;;;-146.93;84.74
21664;BME280;10993;52.510;13.456;2024-01-16T09:32:53;57170.28;;;-146.93;84.76
21664;BME280;10993;52.510;13.456;2024-01-16T09:37:53;57212.81;;;-146.93;85.93
21664;BME280;10993;52.510;13.456;2024-01-16T09:42:55;57156.09;;;-146.93;85.66
21664;BME280;10993;52.510;13.456;2024-01-16T09:47:56;57166.22;;;-146.93;85.03
21664;BME280;10993;52.510;13.456;2024-01-16T09:52:56;57156.09;;;-146.93;84.67
21664;BME280;10993;52.510;13.456;2024-01-16T09:57:59;57168.25;;;-146.93;85.62
21664;BME280;10993;52.510;13.456;2024-01-16T10:03:00;57253.31;;;-146.93;85.52
21664;BME280;10993;52.510;13.456;2024-01-16T10:08:01;57196.59;;;-146.93;84.82
21664;BME280;10993;52.510;13.456;2024-01-16T10:13:03;57253.31;;;-146.93;84.97
21664;BME280;10993;52.510;13.456;2024-01-16T10:18:03;57196.59;;;-146.93;84.55
21664;BME280;10993;52.510;13.456;2024-01-16T10:23:04;57135.84;;;-146.93;83.50
21664;BME280;10993;52.510;13.456;2024-01-16T10:28:06;57131.81;;;-146.93;82.70
21664;BME280;10993;52.510;13.456;2024-01-16T10:33:15;57093.31;;;-146.93;82.93
21664;BME280;10993;52.510;13.456;2024-01-16T10:38:20;57133.81;;;-146.93;83.56
21664;BME280;10993;52.510;13.456;2024-01-16T10:43:22;57117.63;;;-146.93;83.97
21664;BME280;10993;52.510;13.456;2024-01-16T10:48:22;57050.81;;;-146.93;83.02
21664;BME280;10993;52.510;13.456;2024-01-16T10:53:25;57042.69;;;-146.93;82.06
21664;BME280;10993;52.510;13.456;2024-01-16T10:58:30;57158.13;;;-146.93;82.36
21664;BME280;10993;52.510;13.456;2024-01-16T11:03:35;57022.44;;;-146.93;81.86
21664;BME280;10993;52.510;13.456;2024-01-16T11:08:37;56975.88;;;-146.93;79.31
21664;BME280;10993;52.510;13.456;2024-01-16T11:13:39;56951.59;;;-146.93;78.48
21664;BME280;10993;52.510;13.456;2024-01-16T11:18:41;56981.94;;;-146.93;79.87
21664;BME280;10993;52.510;13.456;2024-01-16T11:23:41;57014.34;;;-146.93;81.46
21664;BME280;10993;52.510;13.456;2024-01-16T11:28:44;57038.66;;;-146.93;81.06
21664;BME280;10993;52.510;13.456;2024-01-16T11:33:45;57073.06;;;-146.93;82.17
21664;BME280;10993;52.510;13.456;2024-01-16T11:38:46;57034.59;;;-146.93;82.30
21664;BME280;10993;52.510;13.456;2024-01-16T11:43:48;57111.56;;;-146.93;84.18
21664;BME280;10993;52.510;13.456;2024-01-16T11:49:01;57071.06;;;-146.93;84.86
21664;BME280;10993;52.510;13.456;2024-01-16T11:54:02;57137.88;;;-146.93;85.41
21664;BME280;10993;52.510;13.456;2024-01-16T11:59:18;57216.84;;;-146.93;85.97
21664;BME280;10993;52.510;13.456;2024-01-16T12:04:22;57275.59;;;-146.93;87.46
21664;BME280;10993;52.510;13.456;2024-01-16T12:09:25;57265.47;;;-146.93;87.50
21664;BME280;10993;52.510;13.456;2024-01-16T12:14:27;57382.91;;;-146.93;88.67
21664;BME280;10993;52.510;13.456;2024-01-16T12:19:27;57330.25;;;-146.93;88.49
21664;BME280;10993;52.510;13.456;2024-01-16T12:24:28;57324.19;;;-146.93;88.34
21664;BME280;10993;52.510;13.456;2024-01-16T12:29:30;57380.88;;;-146.93;88.42
21664;BME280;10993;52.510;13.456;2024-01-16T12:34:31;57358.63;;;-146.93;88.01
21664;BME280;10993;52.510;13.456;2024-01-16T12:39:32;57358.63;;;-146.93;87.83
21664;BME280;10993;52.510;13.456;2024-01-16T12:44:33;57346.47;;;-146.93;88.53
21664;BME280;10993;52.510;13.456;2024-01-16T12:49:40;57378.88;;;-146.93;88.16
21664;BME280;10993;52.510;13.456;2024-01-16T12:54:41;57312.03;;;-146.93;88.03
21664;BME280;10993;52.510;13.456;2024-01-16T12:59:42;57417.34;;;-146.93;88.29
21664;BME280;10993;52.510;13.456;2024-01-16T13:04:43;57334.31;;;-146.93;89.15
21664;BME280;10993;52.510;13.456;2024-01-16T13:09:43;57601.66;;;-146.93;91.85
21664;BME280;10993;52.510;13.456;2024-01-16T13:14:44;57615.81;;;-146.93;91.81
21664;BME280;10993;52.510;13.456;2024-01-16T13:19:45;57638.09;;;-146.93;91.04
21664;BME280;10993;52.510;13.456;2024-01-16T13:24:46;57532.78;;;-146.93;90.72
21664;BME280;10993;52.510;13.456;2024-01-16T13:29:47;57492.28;;;-146.93;89.88
21664;BME280;10993;52.510;13.456;2024-01-16T13:34:47;57397.09;;;-146.93;89.59
21664;BME280;10993;52.510;13.456;2024-01-16T13:39:49;57391.00;;;-146.93;88.24
21664;BME280;10993;52.510;13.456;2024-01-16T13:44:51;57196.59;;;-146.93;87.34
21664;BME280;10993;52.510;13.456;2024-01-16T13:49:52;57285.72;;;-146.93;87.36
21664;BME280;10993;52.510;13.456;2024-01-16T13:54:52;57267.47;;;-146.93;86.36
21664;BME280;10993;52.510;13.456;2024-01-16T13:59:54;57265.47;;;-146.93;86.72
21664;BME280;10993;52.510;13.456;2024-01-16T14:04:54;57364.69;;;-146.93;88.53
21664;BME280;10993;52.510;13.456;2024-01-16T14:09:55;57310.00;;;-146.93;88.46
21664;BME280;10993;52.510;13.456;2024-01-16T14:14:56;57305.97;;;-146.93;88.27
21664;BME280;10993;52.510;13.456;2024-01-16T14:19:57;57310.00;;;-146.93;87.48
21664;BME280;10993;52.510;13.456;2024-01-16T14:24:57;57235.09;;;-146.93;86.87
21664;BME280;10993;52.510;13.456;2024-01-16T14:29:58;57079.16;;;-146.93;86.74
21664;BME280;10993;52.510;13.456;2024-01-16T14:34:59;57233.06;;;-146.93;86.36
21664;BME280;10993;52.510;13.456;2024-01-16T14:39:59;57291.78;;;-146.93;87.15
21664;BME280;10993;52.510;13.456;2024-01-16T14:45:02;57429.50;;;-146.93;88.95
21664;BME280;10993;52.510;13.456;2024-01-16T14:50:03;57407.22;;;-146.93;89.91
21664;BME280;10993;52.510;13.456;2024-01-16T14:55:05;57395.06;;;-146.93;89.93
21664;BME280;10993;52.510;13.456;2024-01-16T15:00:09;57405.19;;;-146.93;90.21
21664;BME280;10993;52.510;13.456;2024-01-16T15:05:16;57492.28;;;-146.93;90.45
21664;BME280;10993;52.510;13.456;2024-01-16T15:10:17;57312.03;;;-146.93;90.49
21664;BME280;10993;52.510;13.456;2024-01-16T15:15:19;57536.84;;;-146.93;90.48
21664;BME280;10993;52.510;13.456;2024-01-16T15:20:19;57524.69;;;-146.93;90.52
21664;BME280;10993;52.510;13.456;2024-01-16T15:25:20;57561.13;;;-146.93;91.41
21664;BME280;10993;52.510;13.456;2024-01-16T15:30:26;57613.78;;;-146.93;91.81
21664;BME280;10993;52.510;13.456;2024-01-16T15:35:31;57642.16;;;-146.93;92.32
21664;BME280;10993;52.510;13.456;2024-01-16T15:40:32;57792.03;;;-146.93;92.70
21664;BME280;10993;52.510;13.456;2024-01-16T15:45:33;57753.53;;;-146.93;93.02
21664;BME280;10993;52.510;13.456;2024-01-16T15:50:34;57796.09;;;-146.93;93.37
21664;BME280;10993;52.510;13.456;2024-01-16T15:55:35;57869.00;;;-146.93;93.68
21664;BME280;10993;52.510;13.456;2024-01-16T16:00:36;58035.09;;;-146.93;94.74
21664;BME280;10993;52.510;13.456;2024-01-16T16:05:37;58369.31;;;-146.93;96.48
21664;BME280;10993;52.510;13.456;2024-01-16T16:10:37;58456.44;;;-146.93;96.71
21664;BME280;10993;52.510;13.456;2024-01-16T16:15:41;58355.16;;;-146.93;96.14
21664;BME280;10993;52.510;13.456;2024-01-16T16:20:41;58225.50;;;-146.93;95.95
21664;BME280;10993;52.510;13.456;2024-01-16T16:25:45;58249.81;;;-146.93;95.61
21664;BME280;10993;52.510;13.456;2024-01-16T16:30:47;58197.13;;;-146.93;95.52
21664;BME280;10993;52.510;13.456;2024-01-16T16:35:47;58276.13;;;-146.93;96.04
21664;BME280;10993;52.510;13.456;2024-01-16T16:40:48;58274.13;;;-146.93;95.67
21664;BME280;10993;52.510;13.456;2024-01-16T16:45:49;58274.13;;;-146.93;95.52
21664;BME280;10993;52.510;13.456;2024-01-16T16:50:50;58184.97;;;-146.93;95.24
21664;BME280;10993;52.510;13.456;2024-01-16T16:55:50;58168.78;;;-146.93;95.31
21664;BME280;10993;52.510;13.456;2024-01-16T17:00:52;58168.78;;;-146.93;95.21
21664;BME280;10993;52.510;13.456;2024-01-16T17:05:52;58130.28;;;-146.93;94.89
21664;BME280;10993;52.510;13.456;2024-01-16T17:10:52;58110.03;;;-146.93;94.88
21664;BME280;10993;52.510;13.456;2024-01-16T17:15:54;58020.91;;;-146.93;94.36
21664;BME280;10993;52.510;13.456;2024-01-16T17:20:55;57956.09;;;-146.93;94.35
21664;BME280;10993;52.510;13.456;2024-01-16T17:25:56;57948.00;;;-146.93;93.70
21664;BME280;10993;52.510;13.456;2024-01-16T17:31:01;57830.50;;;-146.93;93.30
21664;BME280;10993;52.510;13.456;2024-01-16T17:36:03;57741.38;;;-146.93;92.37
21664;BME280;10993;52.510;13.456;2024-01-16T17:41:10;57654.31;;;-146.93;91.92
21664;BME280;10993;52.510;13.456;2024-01-16T17:46:12;57601.66;;;-146.93;90.96
21664;BME280;10993;52.510;13.456;2024-01-16T17:51:12;57627.97;;;-146.93;91.49
21664;BME280;10993;52.510;13.456;2024-01-16T17:56:13;57504.44;;;-146.93;90.78
21664;BME280;10993;52.510;13.456;2024-01-16T18:01:16;57508.47;;;-146.93;90.48
21664;BME280;10993;52.510;13.456;2024-01-16T18:06:16;57526.72;;;-146.93;90.43
21664;BME280;10993;52.510;13.456;2024-01-16T18:11:17;57500.38;;;-146.93;89.84
21664;BME280;10993;52.510;13.456;2024-01-16T18:16:19;57419.38;;;-146.93;89.19
21664;BME280;10993;52.510;13.456;2024-01-16T18:21:19;57411.28;;;-146.93;89.35
21664;BME280;10993;52.510;13.456;2024-01-16T18:26:19;57261.41;;;-146.93;89.07
21664;BME280;10993;52.510;13.456;2024-01-16T18:31:21;58128.25;;;-146.93;88.72
21664;BME280;10993;52.510;13.456;2024-01-16T18:36:21;57310.00;;;-146.93;88.83
21664;BME280;10993;52.510;13.456;2024-01-16T18:41:22;57395.06;;;-146.93;88.94
21664;BME280;10993;52.510;13.456;2024-01-16T18:46:24;57360.63;;;-146.93;88.54
21664;BME280;10993;52.510;13.456;2024-01-16T18:51:26;57415.31;;;-146.93;89.38
21664;BME280;10993;52.510;13.456;2024-01-16T18:56:26;57467.97;;;-146.93;90.05
21664;BME280;10993;52.510;13.456;2024-01-16T19:01:29;57528.72;;;-146.93;90.35
21664;BME280;10993;52.510;13.456;2024-01-16T19:06:41;57524.69;;;-146.93;89.86
21664;BME280;10993;52.510;13.456;2024-01-16T19:11:46;57455.81;;;-146.93;89.82
21664;BME280;10993;52.510;13.456;2024-01-16T19:16:50;57445.69;;;-146.93;89.63
21664;BME280;10993;52.510;13.456;2024-01-16T19:21:50;57403.16;;;-146.93;89.35
21664;BME280;10993;52.510;13.456;2024-01-16T19:26:51;57419.38;;;-146.93;89.38
21664;BME280;10993;52.510;13.456;2024-01-16T19:31:53;57360.63;;;-146.93;89.54
21664;BME280;10993;52.510;13.456;2024-01-16T19:36:57;57421.41;;;-146.93;89.14
21664;BME280;10993;52.510;13.456;2024-01-16T19:41:59;57382.91;;;-146.93;88.86
21664;BME280;10993;52.510;13.456;2024-01-16T19:47:00;57348.50;;;-146.93;88.72
21664;BME280;10993;52.510;13.456;2024-01-16T19:52:01;57403.16;;;-146.93;88.72
21664;BME280;10993;52.510;13.456;2024-01-16T19:57:01;57407.22;;;-146.93;88.87
21664;BME280;10993;52.510;13.456;2024-01-16T20:02:03;57334.31;;;-146.93;88.54
21664;BME280;10993;52.510;13.456;2024-01-16T20:07:04;57354.56;;;-146.93;88.57
21664;BME280;10993;52.510;13.456;2024-01-16T20:12:05;57305.97;;;-146.93;88.29
21664;BME280;10993;52.510;13.456;2024-01-16T20:17:08;58422.00;;;-146.93;87.15
21664;BME280;10993;52.510;13.456;2024-01-16T20:22:08;57247.22;;;-146.93;87.00
21664;BME280;10993;52.510;13.456;2024-01-16T20:27:10;57261.41;;;-146.93;86.79
21664;BME280;10993;52.510;13.456;2024-01-16T20:32:12;57231.03;;;-146.93;86.95
21664;BME280;10993;52.510;13.456;2024-01-16T20:37:13;57237.09;;;-146.93;86.44
21664;BME280;10993;52.510;13.456;2024-01-16T20:42:14;57218.88;;;-146.93;85.99
21664;BME280;10993;52.510;13.456;2024-01-16T20:47:15;57265.47;;;-146.93;86.70
21664;BME280;10993;52.510;13.456;2024-01-16T20:52:16;57208.75;;;-146.93;85.86
21664;BME280;10993;52.510;13.456;2024-01-16T20:57:17;57192.56;;;-146.93;85.01
21664;BME280;10993;52.510;13.456;2024-01-16T21:02:19;57200.66;;;-146.93;85.25
21664;BME280;10993;52.510;13.456;2024-01-16T21:07:19;57206.72;;;-146.93;85.72
21664;BME280;10993;52.510;13.456;2024-01-16T21:12:23;57233.06;;;-146.93;85.31
21664;BME280;10993;52.510;13.456;2024-01-16T21:17:24;57208.75;;;-146.93;85.29
21664;BME280;10993;52.510;13.456;2024-01-16T21:22:25;57192.56;;;-146.93;85.15
21664;BME280;10993;52.510;13.456;2024-01-16T21:27:25;57091.31;;;-146.93;85.18
21664;BME280;10993;52.510;13.456;2024-01-16T21:32:27;57160.16;;;-146.93;85.57
21664;BME280;10993;52.510;13.456;2024-01-16T21:37:27;57188.50;;;-146.93;84.97
21664;BME280;10993;52.510;13.456;2024-01-16T21:42:27;57204.69;;;-146.93;85.41
21664;BME280;10993;52.510;13.456;2024-01-16T21:47:29;57168.25;;;-146.93;84.98
21664;BME280;10993;52.510;13.456;2024-01-16T21:52:29;57218.88;;;-146.93;85.64
21664;BME280;10993;52.510;13.456;2024-01-16T21:57:30;57251.28;;;-146.93;86.81
21664;BME280;10993;52.510;13.456;2024-01-16T22:02:33;57245.22;;;-146.93;87.02
21664;BME280;10993;52.510;13.456;2024-01-16T22:07:34;58128.25;;;-146.93;87.14
21664;BME280;10993;52.510;13.456;2024-01-16T22:12:34;57261.41;;;-146.93;87.02
21664;BME280;10993;52.510;13.456;2024-01-16T22:17:36;57297.84;;;-146.93;86.86
21664;BME280;10993;52.510;13.456;2024-01-16T22:22:37;57218.88;;;-146.93;86.48
21664;BME280;10993;52.510;13.456;2024-01-16T22:27:39;57239.13;;;-146.93;86.15
21664;BME280;10993;52.510;13.456;2024-01-16T22:32:41;57245.22;;;-146.93;86.28
21664;BME280;10993;52.510;13.456;2024-01-16T22:37:41;57220.91;;;-146.93;86.63
21664;BME280;10993;52.510;13.456;2024-01-16T22:42:44;57261.41;;;-146.93;87.25
21664;BME280;10993;52.510;13.456;2024-01-16T22:47:46;57330.25;;;-146.93;88.58
21664;BME280;10993;52.510;13.456;2024-01-16T22:52:46;57395.06;;;-146.93;89.32
21664;BME280;10993;52.510;13.456;2024-01-16T22:57:47;57372.78;;;-146.93;90.05
21664;BME280;10993;52.510;13.456;2024-01-16T23:02:48;57433.53;;;-146.93;90.68
21664;BME280;10993;52.510;13.456;2024-01-16T23:07:49;57502.41;;;-146.93;91.41
21664;BME280;10993;52.510;13.456;2024-01-16T23:12:49;57465.94;;;-146.93;91.26
21664;BME280;10993;52.510;13.456;2024-01-16T23:17:51;57498.34;;;-146.93;91.89
21664;BME280;10993;52.510;13.456;2024-01-16T23:22:51;57559.13;;;-146.93;92.70
21664;BME280;10993;52.510;13.456;2024-01-16T23:27:52;57648.22;;;-146.93;93.02
21664;BME280;10993;52.510;13.456;2024-01-16T23:32:54;57589.50;;;-146.93;92.50
21664;BME280;10993;52.510;13.456;2024-01-16T23:37:54;57581.38;;;-146.93;92.46
21664;BME280;10993;52.510;13.456;2024-01-16T23:42:55;57581.38;;;-146.93;92.75
21664;BME280;10993;52.510;13.456;2024-01-16T23:47:58;57601.66;;;-146.93;93.11
21664;BME280;10993;52.510;13.456;2024-01-16T23:52:58;57646.19;;;-146.93;93.23
21664;BME280;10993;52.510;13.456;2024-01-16T23:57:59;57715.06;;;-146.93;93.62
